createdAt,value
2019-05-02T00:02:32.756Z,9.50
2019-05-02T00:05:04.823Z,9.46
2019-05-02T00:07:36.232Z,9.43
2019-05-02T00:10:09.989Z,9.38
2019-05-02T00:12:41.388Z,9.38
2019-05-02T00:15:15.471Z,9.36
2019-05-02T00:17:46.797Z,9.33
2019-05-02T00:20:21.259Z,9.29
2019-05-02T00:22:53.446Z,9.26
2019-05-02T00:25:24.793Z,9.21
2019-05-02T00:27:56.065Z,9.19
2019-05-02T00:30:29.935Z,9.15
2019-05-02T00:33:00.412Z,9.11
2019-05-02T00:35:31.703Z,9.10
2019-05-02T00:38:03.908Z,9.05
2019-05-02T00:40:35.240Z,9.01
2019-05-02T00:43:06.608Z,8.96
2019-05-02T00:45:38.020Z,8.93
2019-05-02T00:48:14.844Z,8.91
2019-05-02T00:50:50.650Z,8.88
2019-05-02T00:53:20.928Z,8.86
2019-05-02T00:55:52.310Z,8.82
2019-05-02T00:58:27.351Z,8.76
2019-05-02T01:01:24.292Z,8.72
2019-05-02T01:03:58.175Z,8.68
2019-05-02T01:06:29.457Z,8.63
2019-05-02T01:09:00.746Z,8.58
2019-05-02T01:11:33.217Z,8.54
2019-05-02T01:14:04.561Z,8.50
2019-05-02T01:16:35.978Z,8.48
2019-05-02T01:19:07.305Z,8.43
2019-05-02T01:21:40.033Z,8.40
2019-05-02T01:24:11.392Z,8.36
2019-05-02T01:26:49.684Z,8.32
2019-05-02T01:29:35.814Z,8.27
2019-05-02T01:32:16.762Z,8.23
2019-05-02T01:34:54.326Z,8.16
2019-05-02T01:37:51.078Z,8.15
2019-05-02T01:40:20.927Z,8.09
2019-05-02T01:42:52.268Z,8.07
2019-05-02T01:45:23.566Z,8.05
2019-05-02T01:47:54.908Z,8.03
2019-05-02T01:50:28.938Z,8.00
2019-05-02T01:53:00.197Z,7.95
2019-05-02T01:55:31.487Z,7.91
2019-05-02T01:58:02.762Z,7.89
2019-05-02T02:00:34.116Z,7.89
2019-05-02T02:03:09.136Z,7.86
2019-05-02T02:05:38.807Z,7.84
2019-05-02T02:08:10.209Z,7.80
2019-05-02T02:10:43.817Z,7.77
2019-05-02T02:13:14.505Z,7.77
2019-05-02T02:15:45.818Z,7.75
2019-05-02T02:18:22.113Z,7.74
2019-05-02T02:21:10.121Z,7.72
2019-05-02T02:24:06.400Z,7.69
2019-05-02T02:26:37.717Z,7.67
2019-05-02T02:29:09.363Z,7.64
2019-05-02T02:31:46.578Z,7.64
2019-05-02T02:34:13.714Z,7.67
2019-05-02T02:36:45.006Z,7.66
2019-05-02T02:39:17.091Z,7.68
2019-05-02T02:41:52.232Z,7.66
2019-05-02T02:44:41.912Z,7.66
2019-05-02T02:47:18.878Z,7.67
2019-05-02T02:49:46.357Z,7.67
2019-05-02T02:52:17.616Z,7.70
2019-05-02T02:54:48.999Z,7.70
2019-05-02T02:57:26.318Z,7.68
2019-05-02T02:59:53.263Z,7.68
2019-05-02T03:02:24.575Z,7.70
2019-05-02T03:04:55.914Z,7.72
2019-05-02T03:07:28.964Z,7.77
2019-05-02T03:10:06.061Z,7.80
2019-05-02T03:12:51.410Z,7.85
2019-05-02T03:15:27.912Z,7.87
2019-05-02T03:17:59.889Z,7.90
2019-05-02T03:20:39.914Z,7.91
2019-05-02T03:23:03.490Z,7.96
2019-05-02T03:25:49.683Z,8.00
2019-05-02T03:28:17.727Z,8.03
2019-05-02T03:30:40.866Z,8.04
2019-05-02T03:33:12.704Z,8.05
2019-05-02T03:35:48.935Z,8.06
2019-05-02T03:38:18.406Z,8.07
2019-05-02T03:40:49.876Z,8.10
2019-05-02T03:43:25.765Z,8.11
2019-05-02T03:45:54.228Z,8.13
2019-05-02T03:48:27.898Z,8.14
2019-05-02T03:50:58.557Z,8.17
2019-05-02T03:53:29.873Z,8.23
2019-05-02T03:56:10.620Z,8.24
2019-05-02T03:58:34.239Z,8.26
2019-05-02T04:01:05.537Z,8.27
2019-05-02T04:03:40.982Z,8.30
2019-05-02T04:06:14.082Z,8.32
2019-05-02T04:08:58.711Z,8.34
2019-05-02T04:11:25.927Z,8.39
2019-05-02T04:13:58.089Z,8.43
2019-05-02T04:16:31.030Z,8.36
2019-05-02T04:19:06.416Z,8.39
2019-05-02T04:21:38.438Z,8.38
2019-05-02T04:24:14.909Z,8.37
2019-05-02T04:26:53.629Z,8.37
2019-05-02T04:29:24.462Z,8.40
2019-05-02T04:31:52.268Z,8.40
2019-05-02T04:34:23.543Z,8.43
2019-05-02T04:37:01.299Z,8.49
2019-05-02T04:39:28.643Z,8.51
2019-05-02T04:42:05.550Z,8.54
2019-05-02T04:44:41.146Z,8.60
2019-05-02T04:47:17.357Z,8.60
2019-05-02T04:49:39.450Z,8.63
2019-05-02T04:52:12.184Z,8.66
2019-05-02T04:54:43.811Z,8.67
2019-05-02T04:57:15.141Z,8.69
2019-05-02T04:59:50.063Z,8.72
2019-05-02T05:02:21.287Z,8.74
2019-05-02T05:04:52.485Z,8.75
2019-05-02T05:07:23.795Z,8.79
2019-05-02T05:09:58.079Z,8.82
2019-05-02T05:12:32.503Z,8.85
2019-05-02T05:15:01.109Z,8.97
2019-05-02T05:17:33.883Z,8.99
2019-05-02T05:20:13.666Z,8.99
2019-05-02T05:22:44.130Z,8.96
2019-05-02T05:25:21.120Z,8.95
2019-05-02T05:27:52.645Z,8.94
2019-05-02T05:30:23.038Z,8.96
2019-05-02T05:32:54.342Z,9.03
2019-05-02T05:35:27.730Z,9.06
2019-05-02T05:37:58.685Z,9.12
2019-05-02T05:40:32.050Z,9.19
2019-05-02T05:43:12.976Z,9.24
2019-05-02T05:45:50.302Z,9.33
2019-05-02T05:48:09.082Z,9.35
2019-05-02T05:50:41.477Z,9.36
2019-05-02T05:53:17.387Z,9.38
2019-05-02T05:55:47.340Z,9.48
2019-05-02T05:58:18.936Z,9.49
2019-05-02T06:00:53.762Z,9.55
2019-05-02T06:03:23.247Z,9.59
2019-05-02T06:05:54.616Z,9.66
2019-05-02T06:08:25.908Z,9.72
2019-05-02T06:10:57.219Z,9.69
2019-05-02T06:13:28.545Z,9.68
2019-05-02T06:16:02.542Z,9.77
2019-05-02T06:18:36.414Z,9.89
2019-05-02T06:21:08.849Z,9.80
2019-05-02T06:23:41.398Z,9.77
2019-05-02T06:26:13.419Z,9.85
2019-05-02T06:28:44.969Z,9.91
2019-05-02T06:31:17.161Z,10.04
2019-05-02T06:33:48.694Z,10.16
2019-05-02T06:36:19.987Z,10.24
2019-05-02T06:38:56.152Z,10.29
2019-05-02T06:41:24.564Z,10.34
2019-05-02T06:43:55.894Z,10.44
2019-05-02T06:46:28.031Z,10.45
2019-05-02T06:49:00.329Z,10.41
2019-05-02T06:51:31.666Z,10.47
2019-05-02T06:54:02.949Z,10.45
2019-05-02T06:56:34.255Z,10.36
2019-05-02T06:59:05.621Z,10.33
2019-05-02T07:01:37.034Z,10.33
2019-05-02T07:04:08.347Z,10.43
2019-05-02T07:06:50.065Z,10.15
2019-05-02T07:09:12.961Z,10.13
2019-05-02T07:11:56.616Z,10.14
2019-05-02T07:14:18.669Z,10.16
2019-05-02T07:16:59.821Z,10.27
2019-05-02T07:19:40.400Z,10.18
2019-05-02T07:22:11.727Z,10.14
2019-05-02T07:24:42.967Z,10.11
2019-05-02T07:27:14.289Z,10.16
2019-05-02T07:29:45.599Z,10.24
2019-05-02T07:32:19.183Z,10.13
2019-05-02T07:34:49.966Z,9.99
2019-05-02T07:37:21.274Z,9.99
2019-05-02T07:39:52.578Z,10.02
2019-05-02T07:42:23.884Z,10.06
2019-05-02T07:44:55.178Z,10.11
2019-05-02T07:47:28.728Z,10.20
2019-05-02T07:49:59.527Z,10.34
2019-05-02T07:52:33.747Z,10.41
2019-05-02T07:55:06.587Z,10.42
2019-05-02T07:57:36.932Z,10.50
2019-05-02T08:00:09.759Z,10.59
2019-05-02T08:02:41.076Z,10.64
2019-05-02T08:05:15.512Z,10.69
2019-05-02T08:07:45.842Z,10.64
2019-05-02T08:10:22.182Z,10.62
2019-05-02T08:12:52.233Z,10.75
2019-05-02T08:15:24.572Z,10.78
2019-05-02T08:17:56.529Z,10.77
2019-05-02T08:20:27.840Z,10.84
2019-05-02T08:22:59.185Z,10.91
2019-05-02T08:25:30.541Z,10.95
2019-05-02T08:28:10.174Z,10.80
2019-05-02T08:30:44.454Z,10.66
2019-05-02T08:33:15.760Z,10.71
2019-05-02T08:35:47.083Z,10.84
2019-05-02T08:38:19.046Z,10.77
2019-05-02T08:40:50.508Z,10.92
2019-05-02T08:43:21.789Z,11.08
2019-05-02T08:45:53.076Z,11.25
2019-05-02T08:48:24.386Z,11.45
2019-05-02T08:50:55.736Z,11.49
2019-05-02T08:53:27.069Z,11.63
2019-05-02T08:55:58.366Z,11.81
2019-05-02T08:58:29.724Z,12.08
2019-05-02T09:01:01.057Z,12.16
2019-05-02T09:03:38.870Z,12.51
2019-05-02T09:06:06.346Z,13.02
2019-05-02T09:08:37.791Z,13.16
2019-05-02T09:11:14.233Z,13.17
2019-05-02T09:13:42.257Z,12.82
2019-05-02T09:16:13.580Z,12.50
2019-05-02T09:18:51.925Z,12.72
2019-05-02T09:21:21.958Z,12.68
2019-05-02T09:23:53.326Z,12.99
2019-05-02T09:26:35.026Z,13.40
2019-05-02T09:29:01.747Z,13.67
2019-05-02T09:31:32.008Z,13.83
2019-05-02T09:34:03.842Z,13.99
2019-05-02T09:36:38.099Z,13.92
2019-05-02T09:39:09.070Z,14.23
2019-05-02T09:41:41.908Z,14.48
2019-05-02T09:44:18.472Z,14.85
2019-05-02T09:46:47.408Z,15.12
2019-05-02T09:49:19.407Z,15.62
2019-05-02T09:51:59.310Z,15.62
2019-05-02T09:54:23.760Z,15.38
2019-05-02T09:56:55.094Z,15.24
2019-05-02T09:59:33.342Z,14.82
2019-05-02T10:02:06.936Z,14.68
2019-05-02T10:04:41.348Z,14.71
2019-05-02T10:07:12.735Z,14.94
2019-05-02T10:09:44.459Z,15.09
2019-05-02T10:12:15.790Z,15.31
2019-05-02T10:14:47.142Z,15.37
2019-05-02T10:17:18.625Z,15.50
2019-05-02T10:19:54.984Z,15.40
2019-05-02T10:22:26.365Z,16.03
2019-05-02T10:24:56.195Z,16.62
2019-05-02T10:27:27.493Z,16.91
2019-05-02T10:30:08.114Z,17.07
2019-05-02T10:32:32.458Z,17.07
2019-05-02T10:35:03.818Z,16.74
2019-05-02T10:37:38.289Z,16.83
2019-05-02T10:40:13.498Z,17.28
2019-05-02T10:42:41.998Z,17.79
2019-05-02T10:45:16.766Z,17.60
2019-05-02T10:47:46.795Z,17.74
2019-05-02T10:50:25.903Z,17.68
2019-05-02T10:52:57.233Z,17.94
2019-05-02T10:55:28.535Z,18.36
2019-05-02T10:58:01.889Z,18.63
2019-05-02T11:00:36.250Z,18.62
2019-05-02T11:03:13.600Z,18.22
2019-05-02T11:05:47.066Z,18.21
2019-05-02T11:08:18.275Z,18.74
2019-05-02T11:10:49.520Z,19.31
2019-05-02T11:13:45.650Z,19.81
2019-05-02T11:16:34.551Z,19.80
2019-05-02T11:19:15.676Z,19.76
2019-05-02T11:21:56.274Z,19.72
2019-05-02T11:24:19.953Z,19.93
2019-05-02T11:26:52.857Z,19.33
2019-05-02T11:29:24.260Z,19.14
2019-05-02T11:31:55.563Z,19.57
2019-05-02T11:34:26.878Z,20.09
2019-05-02T11:36:58.187Z,20.44
2019-05-02T11:39:40.985Z,20.44
2019-05-02T11:42:02.523Z,20.16
2019-05-02T11:44:33.828Z,20.25
2019-05-02T11:47:05.161Z,20.61
2019-05-02T11:49:36.520Z,20.22
2019-05-02T11:52:07.903Z,19.78
2019-05-02T11:54:44.069Z,19.61
2019-05-02T11:57:12.242Z,19.69
2019-05-02T11:59:43.558Z,19.44
2019-05-02T12:02:36.556Z,19.65
2019-05-02T12:05:12.382Z,20.03
2019-05-02T12:07:43.614Z,19.81
2019-05-02T12:10:14.923Z,19.97
2019-05-02T12:12:46.247Z,19.58
2019-05-02T12:15:17.526Z,19.56
2019-05-02T12:17:48.852Z,19.84
2019-05-02T12:20:20.175Z,20.18
2019-05-02T12:22:52.810Z,19.54
2019-05-02T12:25:24.240Z,19.32
2019-05-02T12:27:55.567Z,19.92
2019-05-02T12:30:28.904Z,20.03
2019-05-02T12:32:59.879Z,20.47
2019-05-02T12:35:32.218Z,20.51
2019-05-02T12:38:03.654Z,20.44
2019-05-02T12:40:34.939Z,20.10
2019-05-02T12:43:06.278Z,19.65
2019-05-02T12:45:37.565Z,19.79
2019-05-02T12:48:08.885Z,19.95
2019-05-02T12:50:41.804Z,19.55
2019-05-02T12:53:13.259Z,19.63
2019-05-02T12:55:44.564Z,19.65
2019-05-02T12:58:15.849Z,20.05
2019-05-02T13:00:47.103Z,19.04
2019-05-02T13:03:55.291Z,19.06
2019-05-02T13:06:26.861Z,19.37
2019-05-02T13:08:58.192Z,19.78
2019-05-02T13:11:45.916Z,18.99
2019-05-02T13:14:20.110Z,18.93
2019-05-02T13:16:53.533Z,18.98
2019-05-02T13:19:37.261Z,19.23
2019-05-02T13:22:17.303Z,19.31
2019-05-02T13:24:56.230Z,18.94
2019-05-02T13:27:32.223Z,19.16
2019-05-02T13:30:03.205Z,19.14
2019-05-02T13:32:47.986Z,19.22
2019-05-02T13:35:31.623Z,19.62
2019-05-02T13:38:03.883Z,19.76
2019-05-02T13:40:44.110Z,19.23
2019-05-02T13:43:15.606Z,18.96
2019-05-02T13:46:22.147Z,18.60
2019-05-02T13:48:53.632Z,18.34
2019-05-02T13:51:25.050Z,18.47
2019-05-02T13:53:59.027Z,18.41
2019-05-02T13:56:49.259Z,18.44
2019-05-02T13:59:22.497Z,18.21
2019-05-02T14:01:56.563Z,18.41
2019-05-02T14:04:27.887Z,18.36
2019-05-02T14:06:59.168Z,17.97
2019-05-02T14:09:52.699Z,17.74
2019-05-02T14:12:28.706Z,17.40
2019-05-02T14:15:00.012Z,17.22
2019-05-02T14:17:32.659Z,17.06
2019-05-02T14:20:10.762Z,16.79
2019-05-02T14:22:37.158Z,16.63
2019-05-02T14:25:09.010Z,16.56
2019-05-02T14:27:42.222Z,16.49
2019-05-02T14:30:14.037Z,16.34
2019-05-02T14:32:45.351Z,16.28
2019-05-02T14:35:42.617Z,16.27
2019-05-02T14:38:14.841Z,16.02
2019-05-02T14:41:03.282Z,15.95
2019-05-02T14:43:54.097Z,15.97
2019-05-02T14:46:35.576Z,15.54
2019-05-02T14:49:00.018Z,15.55
2019-05-02T14:51:33.094Z,15.45
2019-05-02T14:54:08.228Z,15.33
2019-05-02T14:56:48.596Z,15.34
2019-05-02T14:59:20.259Z,15.24
2019-05-02T15:01:57.916Z,15.17
2019-05-02T15:04:29.115Z,15.05
2019-05-02T15:07:02.102Z,14.95
2019-05-02T15:09:36.150Z,14.84
2019-05-02T15:12:13.931Z,14.83
2019-05-02T15:14:39.656Z,14.71
2019-05-02T15:17:12.075Z,14.68
2019-05-02T15:19:43.472Z,14.56
2019-05-02T15:22:14.751Z,14.53
2019-05-02T15:24:46.134Z,14.57
2019-05-02T15:27:17.958Z,14.55
2019-05-02T15:29:53.968Z,14.53
2019-05-02T15:32:44.952Z,14.54
2019-05-02T15:35:31.789Z,14.62
2019-05-02T15:38:06.738Z,14.53
2019-05-02T15:40:48.057Z,14.53
2019-05-02T15:43:09.927Z,14.53
2019-05-02T15:45:44.121Z,14.60
2019-05-02T15:48:25.573Z,14.60
2019-05-02T15:50:53.078Z,14.59
2019-05-02T15:53:39.025Z,14.59
2019-05-02T15:56:18.707Z,14.63
2019-05-02T15:58:42.560Z,14.70
2019-05-02T16:01:24.703Z,14.72
2019-05-02T16:03:56.793Z,14.79
2019-05-02T16:06:31.645Z,14.87
2019-05-02T16:09:02.422Z,14.92
2019-05-02T16:11:33.864Z,14.88
2019-05-02T16:14:05.280Z,14.78
2019-05-02T16:16:40.837Z,14.74
2019-05-02T16:19:14.722Z,14.68
2019-05-02T16:21:52.001Z,14.65
2019-05-02T16:24:24.095Z,14.51
2019-05-02T16:26:57.130Z,14.42
2019-05-02T16:29:29.116Z,14.30
2019-05-02T16:32:07.744Z,14.37
2019-05-02T16:34:59.750Z,14.05
2019-05-02T16:37:32.479Z,13.88
2019-05-02T16:40:04.615Z,13.61
2019-05-02T16:42:36.097Z,13.35
2019-05-02T16:45:11.751Z,13.17
2019-05-02T16:47:43.111Z,13.05
2019-05-02T16:50:14.770Z,12.95
2019-05-02T16:52:47.482Z,12.87
2019-05-02T16:55:24.827Z,12.77
2019-05-02T16:57:56.864Z,12.73
2019-05-02T17:00:26.600Z,12.75
2019-05-02T17:02:57.965Z,12.66
2019-05-02T17:05:29.270Z,12.64
2019-05-02T17:08:20.180Z,12.61
2019-05-02T17:11:05.588Z,12.58
2019-05-02T17:13:36.896Z,12.54
2019-05-02T17:16:12.967Z,12.48
2019-05-02T17:18:43.281Z,12.47
2019-05-02T17:21:14.484Z,12.47
2019-05-02T17:23:50.419Z,12.49
2019-05-02T17:26:22.846Z,12.49
2019-05-02T17:28:54.206Z,12.49
2019-05-02T17:31:25.533Z,12.50
2019-05-02T17:33:56.857Z,12.52
2019-05-02T17:36:28.986Z,12.53
2019-05-02T17:39:06.326Z,12.57
2019-05-02T17:41:37.010Z,12.53
2019-05-02T17:44:07.474Z,12.52
2019-05-02T17:46:39.304Z,12.51
2019-05-02T17:49:11.932Z,12.52
2019-05-02T17:52:06.055Z,12.52
2019-05-02T17:54:38.291Z,12.51
2019-05-02T17:57:11.742Z,12.51
2019-05-02T17:59:42.841Z,12.48
2019-05-02T18:02:15.851Z,12.41
2019-05-02T18:04:52.176Z,12.37
2019-05-02T18:07:25.045Z,12.36
2019-05-02T18:09:53.249Z,12.36
2019-05-02T18:12:24.567Z,12.30
2019-05-02T18:14:58.937Z,12.25
2019-05-02T18:17:29.182Z,12.25
2019-05-02T18:20:02.235Z,12.33
2019-05-02T18:22:34.816Z,12.22
2019-05-02T18:25:06.831Z,12.20
2019-05-02T18:27:38.212Z,12.17
2019-05-02T18:30:12.776Z,12.09
2019-05-02T18:32:44.218Z,12.07
2019-05-02T18:35:15.624Z,12.11
2019-05-02T18:37:47.049Z,12.04
2019-05-02T18:40:20.193Z,12.00
2019-05-02T18:42:52.049Z,11.95
2019-05-02T18:45:28.564Z,11.90
2019-05-02T18:48:02.132Z,11.84
2019-05-02T18:50:41.861Z,11.83
2019-05-02T18:53:11.277Z,11.83
2019-05-02T18:55:42.769Z,11.80
2019-05-02T18:58:14.105Z,11.86
2019-05-02T19:00:45.446Z,11.86
2019-05-02T19:03:17.736Z,11.90
2019-05-02T19:05:51.579Z,11.84
2019-05-02T19:08:29.046Z,11.95
2019-05-02T19:11:04.709Z,11.84
2019-05-02T19:13:29.913Z,11.86
2019-05-02T19:16:02.056Z,11.70
2019-05-02T19:18:37.014Z,11.69
2019-05-02T19:21:08.871Z,11.71
2019-05-02T19:23:42.287Z,11.70
2019-05-02T19:26:15.375Z,11.70
2019-05-02T19:29:03.616Z,11.64
2019-05-02T19:31:46.653Z,11.64
2019-05-02T19:34:22.947Z,11.68
2019-05-02T19:36:52.834Z,11.60
2019-05-02T19:39:25.835Z,11.61
2019-05-02T19:41:57.170Z,11.61
2019-05-02T19:44:29.838Z,11.67
2019-05-02T19:47:02.535Z,11.61
2019-05-02T19:49:34.021Z,11.68
2019-05-02T19:52:05.524Z,11.64
2019-05-02T19:54:39.263Z,11.67
2019-05-02T19:57:11.697Z,11.66
2019-05-02T19:59:43.188Z,11.68
2019-05-02T20:02:14.447Z,11.67
2019-05-02T20:04:45.807Z,11.70
2019-05-02T20:07:17.207Z,11.75
2019-05-02T20:09:48.536Z,11.82
2019-05-02T20:12:21.922Z,11.73
2019-05-02T20:14:53.463Z,11.72
2019-05-02T20:17:24.827Z,11.77
2019-05-02T20:20:05.477Z,11.80
2019-05-02T20:22:31.658Z,11.75
2019-05-02T20:25:03.820Z,11.74
2019-05-02T20:27:35.321Z,11.91
2019-05-02T20:30:07.605Z,11.86
2019-05-02T20:32:38.901Z,11.79
2019-05-02T20:35:11.939Z,11.73
2019-05-02T20:37:43.389Z,11.72
2019-05-02T20:40:29.130Z,11.63
2019-05-02T20:43:02.423Z,11.61
2019-05-02T20:45:33.599Z,11.59
2019-05-02T20:48:05.381Z,11.54
2019-05-02T20:50:36.845Z,11.52
2019-05-02T20:53:08.321Z,11.54
2019-05-02T20:55:41.569Z,11.40
2019-05-02T20:58:12.764Z,11.38
2019-05-02T21:00:46.446Z,11.20
2019-05-02T21:03:17.939Z,11.14
2019-05-02T21:06:12.222Z,11.03
2019-05-02T21:09:02.050Z,10.98
2019-05-02T21:11:33.193Z,10.90
2019-05-02T21:14:05.070Z,10.87
2019-05-02T21:16:36.411Z,10.85
2019-05-02T21:19:07.822Z,10.72
2019-05-02T21:21:40.750Z,10.66
2019-05-02T21:24:12.930Z,10.60
2019-05-02T21:26:44.290Z,10.54
2019-05-02T21:29:15.646Z,10.49
2019-05-02T21:31:47.079Z,10.39
2019-05-02T21:34:18.453Z,10.26
2019-05-02T21:36:51.740Z,10.18
2019-05-02T21:39:22.876Z,10.16
2019-05-02T21:41:54.302Z,10.03
2019-05-02T21:44:25.693Z,9.96
2019-05-02T21:46:57.032Z,9.91
2019-05-02T21:49:43.013Z,9.85
2019-05-02T21:52:31.954Z,9.79
2019-05-02T21:55:13.574Z,9.84
2019-05-02T21:57:44.950Z,9.81
2019-05-02T22:00:47.875Z,9.76
2019-05-02T22:03:19.450Z,9.76
2019-05-02T22:05:50.856Z,9.77
2019-05-02T22:08:22.271Z,9.76
2019-05-02T22:10:53.577Z,9.70
2019-05-02T22:13:24.865Z,9.69
2019-05-02T22:15:56.301Z,9.59
2019-05-02T22:18:27.669Z,9.56
2019-05-02T22:20:58.944Z,9.49
2019-05-02T22:23:31.807Z,9.44
2019-05-02T22:26:04.312Z,9.39
2019-05-02T22:28:35.654Z,9.34
2019-05-02T22:31:06.923Z,9.31
2019-05-02T22:33:38.240Z,9.30
2019-05-02T22:36:09.557Z,9.33
2019-05-02T22:38:49.384Z,9.26
2019-05-02T22:41:22.115Z,9.22
2019-05-02T22:43:53.648Z,9.19
2019-05-02T22:46:44.189Z,9.17
2019-05-02T22:49:16.282Z,9.16
2019-05-02T22:51:47.638Z,9.13
2019-05-02T22:54:27.893Z,9.13
2019-05-02T22:56:52.271Z,9.16
2019-05-02T22:59:24.005Z,9.19
2019-05-02T23:01:55.447Z,9.21
2019-05-02T23:04:26.774Z,9.25
2019-05-02T23:06:58.176Z,9.25
2019-05-02T23:09:29.460Z,9.26
2019-05-02T23:12:02.928Z,9.31
2019-05-02T23:14:34.142Z,9.37
2019-05-02T23:17:05.522Z,9.34
2019-05-02T23:19:36.822Z,9.34
2019-05-02T23:22:09.165Z,9.34
2019-05-02T23:24:59.420Z,9.38
2019-05-02T23:27:42.261Z,9.38
2019-05-02T23:30:17.190Z,9.35
2019-05-02T23:32:48.573Z,9.36
2019-05-02T23:35:19.981Z,9.34
2019-05-02T23:37:52.952Z,9.34
2019-05-02T23:40:24.523Z,9.35
2019-05-02T23:42:55.814Z,9.36
2019-05-02T23:45:27.126Z,9.37
2019-05-02T23:47:58.440Z,9.42
2019-05-02T23:50:29.765Z,9.42
2019-05-02T23:53:02.286Z,9.44
2019-05-02T23:55:33.765Z,9.44
2019-05-02T23:58:05.133Z,9.45
